sensor_id;sensor_type;location;lat;lon;timestamp;temperature;humidity
12771;DHT22;6449;47.666;9.160;2022-09-01T00:01:33;15.40;99.90
12771;DHT22;6449;47.666;9.160;2022-09-01T00:06:31;15.30;99.90
12771;DHT22;6449;47.666;9.160;2022-09-01T00:11:27;15.10;99.90
12771;DHT22;6449;47.666;9.160;2022-09-01T00:16:21;14.90;99.90
12771;DHT22;6449;47.666;9.160;2022-09-01T00:21:23;14.90;99.90
12771;DHT22;6449;47.666;9.160;2022-09-01T00:26:18;15.00;99.90
12771;DHT22;6449;47.666;9.160;2022-09-01T00:31:12;15.00;99.90
12771;DHT22;6449;47.666;9.160;2022-09-01T00:36:07;15.00;99.90
12771;DHT22;6449;47.666;9.160;2022-09-01T00:41:03;15.00;99.90
12771;DHT22;6449;47.666;9.160;2022-09-01T00:45:58;15.00;99.90
12771;DHT22;6449;47.666;9.160;2022-09-01T00:50:52;15.00;99.90
12771;DHT22;6449;47.666;9.160;2022-09-01T00:55:45;15.00;99.90
12771;DHT22;6449;47.666;9.160;2022-09-01T01:00:40;15.00;99.90
12771;DHT22;6449;47.666;9.160;2022-09-01T01:05:37;14.90;99.90
12771;DHT22;6449;47.666;9.160;2022-09-01T01:10:35;14.90;99.90
12771;DHT22;6449;47.666;9.160;2022-09-01T01:15:30;14.90;99.90
12771;DHT22;6449;47.666;9.160;2022-09-01T01:20:27;14.90;99.90
12771;DHT22;6449;47.666;9.160;2022-09-01T01:25:45;15.10;99.90
12771;DHT22;6449;47.666;9.160;2022-09-01T01:30:44;15.30;99.90
12771;DHT22;6449;47.666;9.160;2022-09-01T01:35:42;15.40;99.90
12771;DHT22;6449;47.666;9.160;2022-09-01T01:40:36;15.30;99.90
12771;DHT22;6449;47.666;9.160;2022-09-01T01:45:32;15.30;99.90
12771;DHT22;6449;47.666;9.160;2022-09-01T01:50:27;15.40;99.90
12771;DHT22;6449;47.666;9.160;2022-09-01T01:55:26;15.40;99.90
12771;DHT22;6449;47.666;9.160;2022-09-01T02:00:24;15.40;99.90
12771;DHT22;6449;47.666;9.160;2022-09-01T02:05:24;15.40;99.90
12771;DHT22;6449;47.666;9.160;2022-09-01T02:10:19;15.40;99.90
12771;DHT22;6449;47.666;9.160;2022-09-01T02:15:13;15.20;99.90
12771;DHT22;6449;47.666;9.160;2022-09-01T02:20:07;15.30;99.90
12771;DHT22;6449;47.666;9.160;2022-09-01T02:25:03;15.20;99.90
12771;DHT22;6449;47.666;9.160;2022-09-01T02:29:57;15.20;99.90
12771;DHT22;6449;47.666;9.160;2022-09-01T02:34:51;15.30;99.90
12771;DHT22;6449;47.666;9.160;2022-09-01T02:39:52;15.30;99.90
12771;DHT22;6449;47.666;9.160;2022-09-01T02:44:49;15.20;99.90
12771;DHT22;6449;47.666;9.160;2022-09-01T02:49:42;15.10;99.90
12771;DHT22;6449;47.666;9.160;2022-09-01T02:54:37;15.10;99.90
12771;DHT22;6449;47.666;9.160;2022-09-01T02:59:30;15.10;99.90
12771;DHT22;6449;47.666;9.160;2022-09-01T03:04:30;15.00;99.90
12771;DHT22;6449;47.666;9.160;2022-09-01T03:09:26;15.10;99.90
12771;DHT22;6449;47.666;9.160;2022-09-01T03:14:20;15.10;99.90
12771;DHT22;6449;47.666;9.160;2022-09-01T03:19:15;15.00;99.90
12771;DHT22;6449;47.666;9.160;2022-09-01T03:24:13;14.90;99.90
12771;DHT22;6449;47.666;9.160;2022-09-01T03:29:09;14.90;99.90
12771;DHT22;6449;47.666;9.160;2022-09-01T03:34:03;14.80;99.90
12771;DHT22;6449;47.666;9.160;2022-09-01T03:38:57;15.10;99.90
12771;DHT22;6449;47.666;9.160;2022-09-01T03:43:52;15.20;99.90
12771;DHT22;6449;47.666;9.160;2022-09-01T03:48:51;15.20;99.90
12771;DHT22;6449;47.666;9.160;2022-09-01T03:53:47;15.00;99.90
12771;DHT22;6449;47.666;9.160;2022-09-01T03:58:45;14.90;99.90
12771;DHT22;6449;47.666;9.160;2022-09-01T04:03:40;15.00;99.90
12771;DHT22;6449;47.666;9.160;2022-09-01T04:08:36;14.90;99.90
12771;DHT22;6449;47.666;9.160;2022-09-01T04:13:34;14.80;99.90
12771;DHT22;6449;47.666;9.160;2022-09-01T04:18:29;14.90;99.90
12771;DHT22;6449;47.666;9.160;2022-09-01T04:23:25;15.00;99.90
12771;DHT22;6449;47.666;9.160;2022-09-01T04:28:21;15.00;99.90
12771;DHT22;6449;47.666;9.160;2022-09-01T04:33:17;15.10;99.90
12771;DHT22;6449;47.666;9.160;2022-09-01T04:38:10;15.20;99.90
12771;DHT22;6449;47.666;9.160;2022-09-01T04:43:08;15.10;99.90
12771;DHT22;6449;47.666;9.160;2022-09-01T04:48:02;15.20;99.90
12771;DHT22;6449;47.666;9.160;2022-09-01T04:52:57;15.30;99.90
12771;DHT22;6449;47.666;9.160;2022-09-01T04:57:51;15.30;99.90
12771;DHT22;6449;47.666;9.160;2022-09-01T05:02:47;15.40;99.90
12771;DHT22;6449;47.666;9.160;2022-09-01T05:07:44;15.50;99.90
12771;DHT22;6449;47.666;9.160;2022-09-01T05:12:37;15.50;99.90
12771;DHT22;6449;47.666;9.160;2022-09-01T05:17:31;15.50;99.90
12771;DHT22;6449;47.666;9.160;2022-09-01T05:22:26;15.40;99.90
12771;DHT22;6449;47.666;9.160;2022-09-01T05:27:22;15.40;99.90
12771;DHT22;6449;47.666;9.160;2022-09-01T05:32:16;15.50;99.90
12771;DHT22;6449;47.666;9.160;2022-09-01T05:37:10;15.60;99.90
12771;DHT22;6449;47.666;9.160;2022-09-01T05:42:08;15.60;99.90
12771;DHT22;6449;47.666;9.160;2022-09-01T05:47:01;15.60;99.90
12771;DHT22;6449;47.666;9.160;2022-09-01T05:51:56;15.80;99.90
12771;DHT22;6449;47.666;9.160;2022-09-01T05:56:50;15.80;99.90
12771;DHT22;6449;47.666;9.160;2022-09-01T06:01:45;15.80;99.90
12771;DHT22;6449;47.666;9.160;2022-09-01T06:06:44;15.90;99.90
12771;DHT22;6449;47.666;9.160;2022-09-01T06:11:58;15.90;99.90
12771;DHT22;6449;47.666;9.160;2022-09-01T06:16:54;15.90;99.90
12771;DHT22;6449;47.666;9.160;2022-09-01T06:21:48;15.90;99.90
12771;DHT22;6449;47.666;9.160;2022-09-01T06:26:42;15.90;99.90
12771;DHT22;6449;47.666;9.160;2022-09-01T06:31:37;16.00;99.90
12771;DHT22;6449;47.666;9.160;2022-09-01T06:36:34;16.00;99.90
12771;DHT22;6449;47.666;9.160;2022-09-01T06:41:31;16.10;99.90
12771;DHT22;6449;47.666;9.160;2022-09-01T06:46:24;16.10;99.90
12771;DHT22;6449;47.666;9.160;2022-09-01T06:51:20;16.20;99.90
12771;DHT22;6449;47.666;9.160;2022-09-01T06:56:17;16.20;99.90
12771;DHT22;6449;47.666;9.160;2022-09-01T07:01:15;16.30;99.90
12771;DHT22;6449;47.666;9.160;2022-09-01T07:06:14;16.40;99.90
12771;DHT22;6449;47.666;9.160;2022-09-01T07:11:32;16.60;99.90
12771;DHT22;6449;47.666;9.160;2022-09-01T07:16:49;16.70;99.90
12771;DHT22;6449;47.666;9.160;2022-09-01T07:22:03;16.80;99.90
12771;DHT22;6449;47.666;9.160;2022-09-01T07:26:59;17.00;99.90
12771;DHT22;6449;47.666;9.160;2022-09-01T07:32:00;17.30;99.90
12771;DHT22;6449;47.666;9.160;2022-09-01T07:37:13;17.40;99.90
12771;DHT22;6449;47.666;9.160;2022-09-01T07:42:29;17.50;99.90
12771;DHT22;6449;47.666;9.160;2022-09-01T07:47:43;17.60;99.90
12771;DHT22;6449;47.666;9.160;2022-09-01T07:52:44;17.80;99.90
12771;DHT22;6449;47.666;9.160;2022-09-01T07:57:43;18.10;99.90
12771;DHT22;6449;47.666;9.160;2022-09-01T08:02:36;18.40;99.90
12771;DHT22;6449;47.666;9.160;2022-09-01T08:07:30;18.20;99.90
12771;DHT22;6449;47.666;9.160;2022-09-01T08:12:44;18.10;99.90
12771;DHT22;6449;47.666;9.160;2022-09-01T08:17:46;17.90;99.90
12771;DHT22;6449;47.666;9.160;2022-09-01T08:22:42;18.10;99.90
12771;DHT22;6449;47.666;9.160;2022-09-01T08:27:36;18.40;99.90
12771;DHT22;6449;47.666;9.160;2022-09-01T08:32:32;18.50;99.90
12771;DHT22;6449;47.666;9.160;2022-09-01T08:37:26;18.50;99.90
12771;DHT22;6449;47.666;9.160;2022-09-01T08:42:29;18.50;99.90
12771;DHT22;6449;47.666;9.160;2022-09-01T08:47:37;18.50;99.90
12771;DHT22;6449;47.666;9.160;2022-09-01T08:52:55;18.50;99.90
12771;DHT22;6449;47.666;9.160;2022-09-01T08:58:01;18.60;99.90
12771;DHT22;6449;47.666;9.160;2022-09-01T09:03:05;18.40;99.90
12771;DHT22;6449;47.666;9.160;2022-09-01T09:08:16;18.20;99.90
12771;DHT22;6449;47.666;9.160;2022-09-01T09:13:38;18.20;99.90
12771;DHT22;6449;47.666;9.160;2022-09-01T09:18:49;18.40;99.90
12771;DHT22;6449;47.666;9.160;2022-09-01T09:23:50;18.80;99.90
12771;DHT22;6449;47.666;9.160;2022-09-01T09:28:50;18.80;99.90
12771;DHT22;6449;47.666;9.160;2022-09-01T09:33:47;18.90;99.90
12771;DHT22;6449;47.666;9.160;2022-09-01T09:38:45;18.80;99.90
12771;DHT22;6449;47.666;9.160;2022-09-01T09:43:44;18.80;99.90
12771;DHT22;6449;47.666;9.160;2022-09-01T09:48:40;18.60;99.90
12771;DHT22;6449;47.666;9.160;2022-09-01T09:53:34;18.60;99.90
12771;DHT22;6449;47.666;9.160;2022-09-01T09:58:34;19.10;99.90
12771;DHT22;6449;47.666;9.160;2022-09-01T10:03:38;19.40;99.90
12771;DHT22;6449;47.666;9.160;2022-09-01T10:08:40;19.30;99.90
12771;DHT22;6449;47.666;9.160;2022-09-01T10:13:38;19.20;99.90
12771;DHT22;6449;47.666;9.160;2022-09-01T10:18:38;19.60;99.90
12771;DHT22;6449;47.666;9.160;2022-09-01T10:23:37;20.00;99.90
12771;DHT22;6449;47.666;9.160;2022-09-01T10:28:33;19.90;99.90
12771;DHT22;6449;47.666;9.160;2022-09-01T10:33:41;19.60;99.90
12771;DHT22;6449;47.666;9.160;2022-09-01T10:38:35;19.80;99.90
12771;DHT22;6449;47.666;9.160;2022-09-01T10:43:37;19.90;99.90
12771;DHT22;6449;47.666;9.160;2022-09-01T10:48:34;20.00;99.90
12771;DHT22;6449;47.666;9.160;2022-09-01T10:53:47;20.00;99.90
12771;DHT22;6449;47.666;9.160;2022-09-01T10:58:48;20.30;99.90
12771;DHT22;6449;47.666;9.160;2022-09-01T11:04:17;20.50;99.90
12771;DHT22;6449;47.666;9.160;2022-09-01T11:09:20;20.20;99.90
12771;DHT22;6449;47.666;9.160;2022-09-01T11:14:18;20.30;99.90
12771;DHT22;6449;47.666;9.160;2022-09-01T11:19:36;20.50;99.90
12771;DHT22;6449;47.666;9.160;2022-09-01T11:24:47;20.70;99.90
12771;DHT22;6449;47.666;9.160;2022-09-01T11:29:56;20.60;99.90
12771;DHT22;6449;47.666;9.160;2022-09-01T11:34:52;20.70;99.90
12771;DHT22;6449;47.666;9.160;2022-09-01T11:39:52;20.80;99.90
12771;DHT22;6449;47.666;9.160;2022-09-01T11:44:55;21.00;99.90
12771;DHT22;6449;47.666;9.160;2022-09-01T11:49:56;21.00;99.90
12771;DHT22;6449;47.666;9.160;2022-09-01T11:54:53;21.00;99.90
12771;DHT22;6449;47.666;9.160;2022-09-01T11:59:46;20.90;99.90
12771;DHT22;6449;47.666;9.160;2022-09-01T12:04:41;21.10;99.90
12771;DHT22;6449;47.666;9.160;2022-09-01T12:09:36;21.20;99.90
12771;DHT22;6449;47.666;9.160;2022-09-01T12:14:34;21.20;99.90
12771;DHT22;6449;47.666;9.160;2022-09-01T12:19:48;21.30;99.90
12771;DHT22;6449;47.666;9.160;2022-09-01T12:24:45;21.40;99.90
12771;DHT22;6449;47.666;9.160;2022-09-01T12:29:41;21.40;99.90
12771;DHT22;6449;47.666;9.160;2022-09-01T12:34:38;21.10;99.90
12771;DHT22;6449;47.666;9.160;2022-09-01T12:39:36;21.00;99.90
12771;DHT22;6449;47.666;9.160;2022-09-01T12:44:32;21.10;99.90
12771;DHT22;6449;47.666;9.160;2022-09-01T12:49:37;21.20;99.90
12771;DHT22;6449;47.666;9.160;2022-09-01T12:54:42;21.20;99.90
12771;DHT22;6449;47.666;9.160;2022-09-01T12:59:36;21.20;99.90
12771;DHT22;6449;47.666;9.160;2022-09-01T13:04:30;21.10;99.90
12771;DHT22;6449;47.666;9.160;2022-09-01T13:09:24;21.10;99.90
12771;DHT22;6449;47.666;9.160;2022-09-01T13:14:19;21.00;99.90
12771;DHT22;6449;47.666;9.160;2022-09-01T13:19:13;21.00;99.90
12771;DHT22;6449;47.666;9.160;2022-09-01T13:24:19;20.90;99.90
12771;DHT22;6449;47.666;9.160;2022-09-01T13:29:20;20.90;99.90
12771;DHT22;6449;47.666;9.160;2022-09-01T13:34:14;20.90;99.90
12771;DHT22;6449;47.666;9.160;2022-09-01T13:39:14;20.70;99.90
12771;DHT22;6449;47.666;9.160;2022-09-01T13:44:09;20.70;99.90
12771;DHT22;6449;47.666;9.160;2022-09-01T13:49:04;20.60;99.90
12771;DHT22;6449;47.666;9.160;2022-09-01T13:54:18;20.50;99.90
12771;DHT22;6449;47.666;9.160;2022-09-01T13:59:11;20.70;99.90
12771;DHT22;6449;47.666;9.160;2022-09-01T14:04:06;20.80;99.90
12771;DHT22;6449;47.666;9.160;2022-09-01T14:08:59;20.70;99.90
12771;DHT22;6449;47.666;9.160;2022-09-01T14:13:53;20.70;99.90
12771;DHT22;6449;47.666;9.160;2022-09-01T14:18:46;20.70;99.90
12771;DHT22;6449;47.666;9.160;2022-09-01T14:23:41;20.70;99.90
12771;DHT22;6449;47.666;9.160;2022-09-01T14:28:36;20.70;99.90
12771;DHT22;6449;47.666;9.160;2022-09-01T14:33:30;20.70;99.90
12771;DHT22;6449;47.666;9.160;2022-09-01T14:38:24;20.90;99.90
12771;DHT22;6449;47.666;9.160;2022-09-01T14:43:19;21.00;99.90
12771;DHT22;6449;47.666;9.160;2022-09-01T14:48:14;20.90;99.90
12771;DHT22;6449;47.666;9.160;2022-09-01T14:53:09;20.70;99.90
12771;DHT22;6449;47.666;9.160;2022-09-01T14:58:04;20.60;99.90
12771;DHT22;6449;47.666;9.160;2022-09-01T15:02:59;20.70;99.90
12771;DHT22;6449;47.666;9.160;2022-09-01T15:07:52;20.80;99.90
12771;DHT22;6449;47.666;9.160;2022-09-01T15:12:46;20.90;99.90
12771;DHT22;6449;47.666;9.160;2022-09-01T15:17:40;20.80;99.90
12771;DHT22;6449;47.666;9.160;2022-09-01T15:22:38;20.70;99.90
12771;DHT22;6449;47.666;9.160;2022-09-01T15:27:32;20.80;99.90
12771;DHT22;6449;47.666;9.160;2022-09-01T15:32:31;20.80;99.90
12771;DHT22;6449;47.666;9.160;2022-09-01T15:37:24;20.70;99.90
12771;DHT22;6449;47.666;9.160;2022-09-01T15:42:19;20.60;99.90
12771;DHT22;6449;47.666;9.160;2022-09-01T15:47:13;20.40;99.90
12771;DHT22;6449;47.666;9.160;2022-09-01T15:52:06;20.30;99.90
12771;DHT22;6449;47.666;9.160;2022-09-01T15:56:59;20.20;99.90
12771;DHT22;6449;47.666;9.160;2022-09-01T16:01:55;20.30;99.90
12771;DHT22;6449;47.666;9.160;2022-09-01T16:06:49;20.40;99.90
12771;DHT22;6449;47.666;9.160;2022-09-01T16:11:43;20.60;99.90
12771;DHT22;6449;47.666;9.160;2022-09-01T16:16:46;20.60;99.90
12771;DHT22;6449;47.666;9.160;2022-09-01T16:21:50;20.50;99.90
12771;DHT22;6449;47.666;9.160;2022-09-01T16:26:47;20.50;99.90
12771;DHT22;6449;47.666;9.160;2022-09-01T16:31:41;20.60;99.90
12771;DHT22;6449;47.666;9.160;2022-09-01T16:36:43;20.50;99.90
12771;DHT22;6449;47.666;9.160;2022-09-01T16:41:51;20.40;99.90
12771;DHT22;6449;47.666;9.160;2022-09-01T16:46:58;20.30;99.90
12771;DHT22;6449;47.666;9.160;2022-09-01T16:52:02;20.30;99.90
12771;DHT22;6449;47.666;9.160;2022-09-01T16:57:06;20.30;99.90
12771;DHT22;6449;47.666;9.160;2022-09-01T17:02:28;20.20;99.90
12771;DHT22;6449;47.666;9.160;2022-09-01T17:07:36;20.20;99.90
12771;DHT22;6449;47.666;9.160;2022-09-01T17:12:39;20.10;99.90
12771;DHT22;6449;47.666;9.160;2022-09-01T17:17:43;20.10;99.90
12771;DHT22;6449;47.666;9.160;2022-09-01T17:22:50;20.10;99.90
12771;DHT22;6449;47.666;9.160;2022-09-01T17:27:49;20.00;99.90
12771;DHT22;6449;47.666;9.160;2022-09-01T17:32:57;19.90;99.90
12771;DHT22;6449;47.666;9.160;2022-09-01T17:38:19;19.80;99.90
12771;DHT22;6449;47.666;9.160;2022-09-01T17:43:23;19.80;99.90
12771;DHT22;6449;47.666;9.160;2022-09-01T17:48:28;19.80;99.90
12771;DHT22;6449;47.666;9.160;2022-09-01T17:53:40;19.70;99.90
12771;DHT22;6449;47.666;9.160;2022-09-01T17:58:48;19.70;99.90
12771;DHT22;6449;47.666;9.160;2022-09-01T18:04:02;19.50;99.90
12771;DHT22;6449;47.666;9.160;2022-09-01T18:09:23;19.40;99.90
12771;DHT22;6449;47.666;9.160;2022-09-01T18:14:20;19.20;99.90
12771;DHT22;6449;47.666;9.160;2022-09-01T18:19:21;19.00;99.90
12771;DHT22;6449;47.666;9.160;2022-09-01T18:24:24;19.00;99.90
12771;DHT22;6449;47.666;9.160;2022-09-01T18:29:21;18.80;99.90
12771;DHT22;6449;47.666;9.160;2022-09-01T18:34:30;18.80;99.90
12771;DHT22;6449;47.666;9.160;2022-09-01T18:39:44;18.60;99.90
12771;DHT22;6449;47.666;9.160;2022-09-01T18:44:49;18.50;99.90
12771;DHT22;6449;47.666;9.160;2022-09-01T18:50:00;18.40;99.90
12771;DHT22;6449;47.666;9.160;2022-09-01T18:55:07;18.30;99.90
12771;DHT22;6449;47.666;9.160;2022-09-01T19:00:16;18.20;99.90
12771;DHT22;6449;47.666;9.160;2022-09-01T19:05:18;18.20;99.90
12771;DHT22;6449;47.666;9.160;2022-09-01T19:10:29;18.20;99.90
12771;DHT22;6449;47.666;9.160;2022-09-01T19:15:32;18.00;99.90
12771;DHT22;6449;47.666;9.160;2022-09-01T19:20:37;17.90;99.90
12771;DHT22;6449;47.666;9.160;2022-09-01T19:25:38;17.90;99.90
12771;DHT22;6449;47.666;9.160;2022-09-01T19:30:38;17.80;99.90
12771;DHT22;6449;47.666;9.160;2022-09-01T19:35:34;17.80;99.90
12771;DHT22;6449;47.666;9.160;2022-09-01T19:40:33;17.80;99.90
12771;DHT22;6449;47.666;9.160;2022-09-01T19:45:39;17.80;99.90
12771;DHT22;6449;47.666;9.160;2022-09-01T19:50:50;17.70;99.90
12771;DHT22;6449;47.666;9.160;2022-09-01T19:55:53;17.70;99.90
12771;DHT22;6449;47.666;9.160;2022-09-01T20:00:53;17.50;99.90
12771;DHT22;6449;47.666;9.160;2022-09-01T20:05:52;17.50;99.90
12771;DHT22;6449;47.666;9.160;2022-09-01T20:10:56;17.60;99.90
12771;DHT22;6449;47.666;9.160;2022-09-01T20:15:58;17.60;99.90
12771;DHT22;6449;47.666;9.160;2022-09-01T20:21:05;17.50;99.90
12771;DHT22;6449;47.666;9.160;2022-09-01T20:26:19;17.50;99.90
12771;DHT22;6449;47.666;9.160;2022-09-01T20:31:19;17.40;99.90
12771;DHT22;6449;47.666;9.160;2022-09-01T20:36:22;17.20;99.90
12771;DHT22;6449;47.666;9.160;2022-09-01T20:41:28;17.20;99.90
12771;DHT22;6449;47.666;9.160;2022-09-01T20:46:31;17.20;99.90
12771;DHT22;6449;47.666;9.160;2022-09-01T20:51:36;17.30;99.90
12771;DHT22;6449;47.666;9.160;2022-09-01T20:56:41;17.30;99.90
12771;DHT22;6449;47.666;9.160;2022-09-01T21:01:45;17.40;99.90
12771;DHT22;6449;47.666;9.160;2022-09-01T21:06:49;17.20;99.90
12771;DHT22;6449;47.666;9.160;2022-09-01T21:11:56;17.20;99.90
12771;DHT22;6449;47.666;9.160;2022-09-01T21:17:02;17.10;99.90
12771;DHT22;6449;47.666;9.160;2022-09-01T21:22:04;17.10;99.90
12771;DHT22;6449;47.666;9.160;2022-09-01T21:27:03;17.30;99.90
12771;DHT22;6449;47.666;9.160;2022-09-01T21:32:00;17.30;99.90
12771;DHT22;6449;47.666;9.160;2022-09-01T21:36:53;17.30;99.90
12771;DHT22;6449;47.666;9.160;2022-09-01T21:41:47;17.10;99.90
12771;DHT22;6449;47.666;9.160;2022-09-01T21:46:42;16.90;99.90
12771;DHT22;6449;47.666;9.160;2022-09-01T21:51:35;17.10;99.90
12771;DHT22;6449;47.666;9.160;2022-09-01T21:56:29;17.00;99.90
12771;DHT22;6449;47.666;9.160;2022-09-01T22:01:22;16.90;99.90
12771;DHT22;6449;47.666;9.160;2022-09-01T22:06:23;16.70;99.90
12771;DHT22;6449;47.666;9.160;2022-09-01T22:11:17;16.30;99.90
12771;DHT22;6449;47.666;9.160;2022-09-01T22:16:15;16.20;99.90
12771;DHT22;6449;47.666;9.160;2022-09-01T22:21:10;16.10;99.90
12771;DHT22;6449;47.666;9.160;2022-09-01T22:26:05;16.10;99.90
12771;DHT22;6449;47.666;9.160;2022-09-01T22:31:05;16.10;99.90
12771;DHT22;6449;47.666;9.160;2022-09-01T22:35:59;16.10;99.90
12771;DHT22;6449;47.666;9.160;2022-09-01T22:40:54;16.10;99.90
12771;DHT22;6449;47.666;9.160;2022-09-01T22:45:52;16.00;99.90
12771;DHT22;6449;47.666;9.160;2022-09-01T22:50:48;16.00;99.90
12771;DHT22;6449;47.666;9.160;2022-09-01T22:55:45;15.90;99.90
12771;DHT22;6449;47.666;9.160;2022-09-01T23:00:44;15.80;99.90
12771;DHT22;6449;47.666;9.160;2022-09-01T23:05:41;15.80;99.90
12771;DHT22;6449;47.666;9.160;2022-09-01T23:10:35;15.90;99.90
12771;DHT22;6449;47.666;9.160;2022-09-01T23:15:29;15.80;99.90
12771;DHT22;6449;47.666;9.160;2022-09-01T23:20:22;15.80;99.90
12771;DHT22;6449;47.666;9.160;2022-09-01T23:25:17;15.70;99.90
12771;DHT22;6449;47.666;9.160;2022-09-01T23:30:13;15.50;99.90
12771;DHT22;6449;47.666;9.160;2022-09-01T23:35:07;15.40;99.90
12771;DHT22;6449;47.666;9.160;2022-09-01T23:40:02;15.40;99.90
12771;DHT22;6449;47.666;9.160;2022-09-01T23:44:58;15.30;99.90
12771;DHT22;6449;47.666;9.160;2022-09-01T23:49:51;15.30;99.90
12771;DHT22;6449;47.666;9.160;2022-09-01T23:54:47;15.40;99.90
12771;DHT22;6449;47.666;9.160;2022-09-01T23:59:40;15.30;99.90
